sensor_id;sensor_type;location;lat;lon;timestamp;noise_LAeq;noise_LA_min;noise_LA_max;noise_LA01;noise_LA95
36217;Laerm;22259;48.792;8.964;2022-09-09T00:01:37;41.61;38.37;45.23;;
36217;Laerm;22259;48.792;8.964;2022-09-09T00:09:02;41.67;38.71;44.23;;
36217;Laerm;22259;48.792;8.964;2022-09-09T00:11:36;42.32;39.18;45.18;;
36217;Laerm;22259;48.792;8.964;2022-09-09T00:14:08;41.97;39.34;44.33;;
36217;Laerm;22259;48.792;8.964;2022-09-09T00:16:36;41.94;38.95;44.82;;
36217;Laerm;22259;48.792;8.964;2022-09-09T00:20:35;41.98;39.25;44.27;;
36217;Laerm;22259;48.792;8.964;2022-09-09T00:23:12;41.83;38.92;47.03;;
36217;Laerm;22259;48.792;8.964;2022-09-09T00:27:16;42.03;39.15;45.14;;
36217;Laerm;22259;48.792;8.964;2022-09-09T00:29:55;42.17;39.55;45.92;;
36217;Laerm;22259;48.792;8.964;2022-09-09T00:32:22;42.50;39.73;52.52;;
36217;Laerm;22259;48.792;8.964;2022-09-09T00:34:54;42.45;39.43;45.41;;
36217;Laerm;22259;48.792;8.964;2022-09-09T00:37:21;42.28;39.40;46.29;;
36217;Laerm;22259;48.792;8.964;2022-09-09T00:39:47;42.45;39.15;44.82;;
36217;Laerm;22259;48.792;8.964;2022-09-09T00:42:24;42.17;39.84;44.32;;
36217;Laerm;22259;48.792;8.964;2022-09-09T00:44:51;42.08;39.15;44.25;;
36217;Laerm;22259;48.792;8.964;2022-09-09T00:50:59;41.92;38.95;44.22;;
36217;Laerm;22259;48.792;8.964;2022-09-09T00:57:29;41.95;38.56;45.01;;
36217;Laerm;22259;48.792;8.964;2022-09-09T01:03:42;42.56;39.58;45.65;;
36217;Laerm;22259;48.792;8.964;2022-09-09T01:06:32;43.07;39.73;46.32;;
36217;Laerm;22259;48.792;8.964;2022-09-09T01:09:16;42.96;39.08;50.81;;
36217;Laerm;22259;48.792;8.964;2022-09-09T01:16:01;41.93;39.46;44.46;;
36217;Laerm;22259;48.792;8.964;2022-09-09T01:18:28;42.16;39.46;44.02;;
36217;Laerm;22259;48.792;8.964;2022-09-09T01:21:15;42.65;39.61;45.57;;
36217;Laerm;22259;48.792;8.964;2022-09-09T01:23:48;42.88;39.49;44.98;;
36217;Laerm;22259;48.792;8.964;2022-09-09T01:26:21;43.15;40.33;45.39;;
36217;Laerm;22259;48.792;8.964;2022-09-09T01:28:49;42.72;39.58;45.07;;
36217;Laerm;22259;48.792;8.964;2022-09-09T01:31:28;42.50;39.55;46.83;;
36217;Laerm;22259;48.792;8.964;2022-09-09T01:33:55;42.57;39.58;45.10;;
36217;Laerm;22259;48.792;8.964;2022-09-09T01:36:25;42.36;39.43;46.14;;
36217;Laerm;22259;48.792;8.964;2022-09-09T01:38:52;42.51;39.52;44.97;;
36217;Laerm;22259;48.792;8.964;2022-09-09T01:41:17;42.78;40.05;46.39;;
36217;Laerm;22259;48.792;8.964;2022-09-09T01:43:43;42.61;40.00;44.76;;
36217;Laerm;22259;48.792;8.964;2022-09-09T01:46:08;42.95;39.64;46.32;;
36217;Laerm;22259;48.792;8.964;2022-09-09T01:48:35;43.41;40.41;45.77;;
36217;Laerm;22259;48.792;8.964;2022-09-09T01:51:00;44.83;41.30;50.50;;
36217;Laerm;22259;48.792;8.964;2022-09-09T01:53:26;44.54;40.05;50.99;;
36217;Laerm;22259;48.792;8.964;2022-09-09T01:56:02;44.48;40.78;51.23;;
36217;Laerm;22259;48.792;8.964;2022-09-09T01:58:45;45.05;41.53;55.33;;
36217;Laerm;22259;48.792;8.964;2022-09-09T02:01:15;49.77;40.55;65.76;;
36217;Laerm;22259;48.792;8.964;2022-09-09T02:03:44;44.10;41.38;47.48;;
36217;Laerm;22259;48.792;8.964;2022-09-09T02:11:16;43.70;39.97;50.10;;
36217;Laerm;22259;48.792;8.964;2022-09-09T02:13:42;43.43;40.11;47.14;;
36217;Laerm;22259;48.792;8.964;2022-09-09T02:16:11;43.59;40.43;48.57;;
36217;Laerm;22259;48.792;8.964;2022-09-09T02:18:56;43.64;40.55;47.70;;
36217;Laerm;22259;48.792;8.964;2022-09-09T02:21:24;43.64;40.55;49.23;;
36217;Laerm;22259;48.792;8.964;2022-09-09T02:23:50;44.43;40.18;49.95;;
36217;Laerm;22259;48.792;8.964;2022-09-09T02:26:18;44.28;40.78;48.27;;
36217;Laerm;22259;48.792;8.964;2022-09-09T02:28:45;45.06;40.62;50.67;;
36217;Laerm;22259;48.792;8.964;2022-09-09T02:31:11;44.27;40.55;51.40;;
36217;Laerm;22259;48.792;8.964;2022-09-09T02:33:38;58.20;41.00;72.05;;
36217;Laerm;22259;48.792;8.964;2022-09-09T02:36:05;44.82;41.32;49.53;;
36217;Laerm;22259;48.792;8.964;2022-09-09T02:38:34;44.50;41.48;48.03;;
36217;Laerm;22259;48.792;8.964;2022-09-09T02:41:02;44.34;40.80;48.37;;
36217;Laerm;22259;48.792;8.964;2022-09-09T02:43:33;44.28;41.64;49.68;;
36217;Laerm;22259;48.792;8.964;2022-09-09T02:46:03;50.64;40.91;66.13;;
36217;Laerm;22259;48.792;8.964;2022-09-09T02:48:35;44.27;41.82;47.87;;
36217;Laerm;22259;48.792;8.964;2022-09-09T02:51:08;43.84;40.67;49.33;;
36217;Laerm;22259;48.792;8.964;2022-09-09T02:53:58;43.29;40.78;46.05;;
36217;Laerm;22259;48.792;8.964;2022-09-09T02:56:25;49.09;39.81;67.51;;
36217;Laerm;22259;48.792;8.964;2022-09-09T02:58:54;42.25;39.49;44.63;;
36217;Laerm;22259;48.792;8.964;2022-09-09T03:01:20;42.83;39.70;44.89;;
36217;Laerm;22259;48.792;8.964;2022-09-09T03:03:45;42.55;39.97;44.52;;
36217;Laerm;22259;48.792;8.964;2022-09-09T03:06:11;47.74;40.41;62.05;;
36217;Laerm;22259;48.792;8.964;2022-09-09T03:08:37;42.45;40.00;44.95;;
36217;Laerm;22259;48.792;8.964;2022-09-09T03:11:02;42.94;40.82;44.71;;
36217;Laerm;22259;48.792;8.964;2022-09-09T03:13:27;43.37;40.78;48.82;;
36217;Laerm;22259;48.792;8.964;2022-09-09T03:15:53;45.49;41.28;59.86;;
36217;Laerm;22259;48.792;8.964;2022-09-09T03:18:18;47.41;40.57;64.93;;
36217;Laerm;22259;48.792;8.964;2022-09-09T03:20:45;43.15;40.64;45.46;;
36217;Laerm;22259;48.792;8.964;2022-09-09T03:23:13;42.52;40.13;45.45;;
36217;Laerm;22259;48.792;8.964;2022-09-09T03:25:38;42.65;40.13;44.98;;
36217;Laerm;22259;48.792;8.964;2022-09-09T03:28:04;42.72;40.23;45.25;;
36217;Laerm;22259;48.792;8.964;2022-09-09T03:30:29;50.34;40.97;66.52;;
36217;Laerm;22259;48.792;8.964;2022-09-09T03:32:55;49.51;41.28;65.29;;
36217;Laerm;22259;48.792;8.964;2022-09-09T03:35:20;47.04;40.16;57.94;;
36217;Laerm;22259;48.792;8.964;2022-09-09T03:37:46;43.25;40.80;47.98;;
36217;Laerm;22259;48.792;8.964;2022-09-09T03:40:12;43.04;40.41;48.56;;
36217;Laerm;22259;48.792;8.964;2022-09-09T03:42:37;52.95;41.22;70.92;;
36217;Laerm;22259;48.792;8.964;2022-09-09T03:45:07;54.62;42.03;68.87;;
36217;Laerm;22259;48.792;8.964;2022-09-09T03:47:34;44.44;41.32;57.67;;
36217;Laerm;22259;48.792;8.964;2022-09-09T03:49:59;49.53;41.50;66.17;;
36217;Laerm;22259;48.792;8.964;2022-09-09T03:52:25;43.71;41.40;46.35;;
36217;Laerm;22259;48.792;8.964;2022-09-09T03:54:51;43.20;40.67;45.38;;
36217;Laerm;22259;48.792;8.964;2022-09-09T03:57:18;43.07;40.69;45.23;;
36217;Laerm;22259;48.792;8.964;2022-09-09T03:59:43;43.69;40.87;46.90;;
36217;Laerm;22259;48.792;8.964;2022-09-09T04:02:08;47.73;41.31;63.13;;
36217;Laerm;22259;48.792;8.964;2022-09-09T04:04:34;49.97;41.53;66.69;;
36217;Laerm;22259;48.792;8.964;2022-09-09T04:06:59;43.77;41.42;53.13;;
36217;Laerm;22259;48.792;8.964;2022-09-09T04:09:25;43.69;41.96;45.69;;
36217;Laerm;22259;48.792;8.964;2022-09-09T04:11:50;43.82;41.55;53.62;;
36217;Laerm;22259;48.792;8.964;2022-09-09T04:14:15;43.83;41.70;47.81;;
36217;Laerm;22259;48.792;8.964;2022-09-09T04:16:41;51.57;41.30;64.73;;
36217;Laerm;22259;48.792;8.964;2022-09-09T04:19:10;43.98;41.57;50.95;;
36217;Laerm;22259;48.792;8.964;2022-09-09T04:21:37;51.23;41.73;63.61;;
36217;Laerm;22259;48.792;8.964;2022-09-09T04:24:05;43.53;41.08;46.83;;
36217;Laerm;22259;48.792;8.964;2022-09-09T04:26:30;43.44;40.71;45.91;;
36217;Laerm;22259;48.792;8.964;2022-09-09T04:28:55;44.84;41.44;63.97;;
36217;Laerm;22259;48.792;8.964;2022-09-09T04:31:22;49.87;41.40;66.10;;
36217;Laerm;22259;48.792;8.964;2022-09-09T04:33:51;46.51;41.14;64.26;;
36217;Laerm;22259;48.792;8.964;2022-09-09T04:36:17;43.15;40.71;46.03;;
36217;Laerm;22259;48.792;8.964;2022-09-09T04:38:44;43.66;41.79;50.92;;
36217;Laerm;22259;48.792;8.964;2022-09-09T04:41:09;43.45;40.82;47.87;;
36217;Laerm;22259;48.792;8.964;2022-09-09T04:43:36;43.48;41.55;45.28;;
36217;Laerm;22259;48.792;8.964;2022-09-09T04:46:02;51.10;41.44;68.93;;
36217;Laerm;22259;48.792;8.964;2022-09-09T04:48:27;51.25;40.93;68.64;;
36217;Laerm;22259;48.792;8.964;2022-09-09T04:50:54;43.58;41.32;48.00;;
36217;Laerm;22259;48.792;8.964;2022-09-09T04:53:19;44.22;41.86;58.49;;
36217;Laerm;22259;48.792;8.964;2022-09-09T04:55:44;44.80;41.70;63.92;;
36217;Laerm;22259;48.792;8.964;2022-09-09T04:58:10;45.96;41.22;63.24;;
36217;Laerm;22259;48.792;8.964;2022-09-09T05:00:35;50.25;41.63;70.32;;
36217;Laerm;22259;48.792;8.964;2022-09-09T05:03:04;59.67;41.89;75.22;;
36217;Laerm;22259;48.792;8.964;2022-09-09T05:05:30;44.66;41.63;58.58;;
36217;Laerm;22259;48.792;8.964;2022-09-09T05:08:00;43.65;41.20;51.51;;
36217;Laerm;22259;48.792;8.964;2022-09-09T05:10:25;43.99;40.64;54.58;;
36217;Laerm;22259;48.792;8.964;2022-09-09T05:12:51;43.31;40.78;53.27;;
36217;Laerm;22259;48.792;8.964;2022-09-09T05:15:17;51.25;41.70;66.71;;
36217;Laerm;22259;48.792;8.964;2022-09-09T05:17:43;51.45;41.44;66.77;;
36217;Laerm;22259;48.792;8.964;2022-09-09T05:20:09;44.26;41.79;54.90;;
36217;Laerm;22259;48.792;8.964;2022-09-09T05:22:34;44.13;42.08;55.13;;
36217;Laerm;22259;48.792;8.964;2022-09-09T05:25:00;43.82;41.73;46.97;;
36217;Laerm;22259;48.792;8.964;2022-09-09T05:27:26;50.21;42.26;61.94;;
36217;Laerm;22259;48.792;8.964;2022-09-09T05:29:52;49.40;42.09;70.01;;
36217;Laerm;22259;48.792;8.964;2022-09-09T05:32:17;50.78;41.82;66.16;;
36217;Laerm;22259;48.792;8.964;2022-09-09T05:34:42;59.39;41.64;77.03;;
36217;Laerm;22259;48.792;8.964;2022-09-09T05:37:08;44.38;41.24;55.17;;
36217;Laerm;22259;48.792;8.964;2022-09-09T05:39:33;43.84;41.48;47.22;;
36217;Laerm;22259;48.792;8.964;2022-09-09T05:42:01;43.81;41.34;54.90;;
36217;Laerm;22259;48.792;8.964;2022-09-09T05:44:28;44.41;42.40;51.13;;
36217;Laerm;22259;48.792;8.964;2022-09-09T05:46:54;52.86;42.41;65.59;;
36217;Laerm;22259;48.792;8.964;2022-09-09T05:49:19;44.63;42.74;56.40;;
36217;Laerm;22259;48.792;8.964;2022-09-09T05:51:45;44.16;41.75;54.15;;
36217;Laerm;22259;48.792;8.964;2022-09-09T05:54:11;50.23;41.68;64.75;;
36217;Laerm;22259;48.792;8.964;2022-09-09T05:56:40;43.75;41.79;46.07;;
36217;Laerm;22259;48.792;8.964;2022-09-09T05:59:05;44.84;41.98;66.74;;
36217;Laerm;22259;48.792;8.964;2022-09-09T06:01:32;51.10;41.75;67.45;;
36217;Laerm;22259;48.792;8.964;2022-09-09T06:03:58;43.90;41.68;51.94;;
36217;Laerm;22259;48.792;8.964;2022-09-09T06:06:27;44.16;41.89;54.65;;
36217;Laerm;22259;48.792;8.964;2022-09-09T06:08:55;43.57;41.61;53.75;;
36217;Laerm;22259;48.792;8.964;2022-09-09T06:11:25;43.86;41.68;50.46;;
36217;Laerm;22259;48.792;8.964;2022-09-09T06:13:51;43.58;41.61;47.77;;
36217;Laerm;22259;48.792;8.964;2022-09-09T06:16:19;50.51;41.73;65.58;;
36217;Laerm;22259;48.792;8.964;2022-09-09T06:18:45;50.41;41.71;66.13;;
36217;Laerm;22259;48.792;8.964;2022-09-09T06:21:20;43.84;40.97;56.48;;
36217;Laerm;22259;48.792;8.964;2022-09-09T06:23:46;43.92;40.73;54.27;;
36217;Laerm;22259;48.792;8.964;2022-09-09T06:26:13;43.94;41.10;55.02;;
36217;Laerm;22259;48.792;8.964;2022-09-09T06:28:39;43.60;40.85;53.06;;
36217;Laerm;22259;48.792;8.964;2022-09-09T06:31:11;51.32;41.48;67.55;;
36217;Laerm;22259;48.792;8.964;2022-09-09T06:33:38;43.55;41.31;54.05;;
36217;Laerm;22259;48.792;8.964;2022-09-09T06:36:16;43.39;41.18;54.02;;
36217;Laerm;22259;48.792;8.964;2022-09-09T06:38:43;43.62;41.10;57.01;;
36217;Laerm;22259;48.792;8.964;2022-09-09T06:41:09;44.43;41.16;53.09;;
36217;Laerm;22259;48.792;8.964;2022-09-09T06:43:35;44.52;41.38;56.66;;
36217;Laerm;22259;48.792;8.964;2022-09-09T06:46:05;50.07;41.70;65.56;;
36217;Laerm;22259;48.792;8.964;2022-09-09T06:48:31;50.52;42.19;65.98;;
36217;Laerm;22259;48.792;8.964;2022-09-09T06:51:06;44.14;41.46;53.71;;
36217;Laerm;22259;48.792;8.964;2022-09-09T06:53:32;43.39;41.26;46.75;;
36217;Laerm;22259;48.792;8.964;2022-09-09T06:55:59;44.03;41.14;58.06;;
36217;Laerm;22259;48.792;8.964;2022-09-09T06:58:25;43.24;41.16;47.71;;
36217;Laerm;22259;48.792;8.964;2022-09-09T07:00:50;50.96;40.80;70.12;;
36217;Laerm;22259;48.792;8.964;2022-09-09T07:03:15;48.96;41.16;68.63;;
36217;Laerm;22259;48.792;8.964;2022-09-09T07:05:41;43.38;40.82;56.62;;
36217;Laerm;22259;48.792;8.964;2022-09-09T07:08:06;47.34;41.32;75.69;;
36217;Laerm;22259;48.792;8.964;2022-09-09T07:10:31;45.89;40.80;59.85;;
36217;Laerm;22259;48.792;8.964;2022-09-09T07:12:59;45.43;40.90;56.99;;
36217;Laerm;22259;48.792;8.964;2022-09-09T07:15:25;51.85;40.71;71.01;;
36217;Laerm;22259;48.792;8.964;2022-09-09T07:17:51;50.64;41.51;65.15;;
36217;Laerm;22259;48.792;8.964;2022-09-09T07:20:17;57.66;41.10;68.87;;
36217;Laerm;22259;48.792;8.964;2022-09-09T07:22:45;54.07;40.30;67.52;;
36217;Laerm;22259;48.792;8.964;2022-09-09T07:25:10;48.80;40.21;74.08;;
36217;Laerm;22259;48.792;8.964;2022-09-09T07:27:35;49.50;39.55;71.80;;
36217;Laerm;22259;48.792;8.964;2022-09-09T07:30:01;50.14;40.80;65.13;;
36217;Laerm;22259;48.792;8.964;2022-09-09T07:32:27;50.47;41.11;66.88;;
36217;Laerm;22259;48.792;8.964;2022-09-09T07:34:53;43.83;40.71;55.15;;
36217;Laerm;22259;48.792;8.964;2022-09-09T07:37:18;45.16;40.23;74.75;;
36217;Laerm;22259;48.792;8.964;2022-09-09T07:39:44;44.06;40.00;62.55;;
36217;Laerm;22259;48.792;8.964;2022-09-09T07:42:09;45.45;39.55;67.21;;
36217;Laerm;22259;48.792;8.964;2022-09-09T07:44:36;43.41;40.62;51.07;;
36217;Laerm;22259;48.792;8.964;2022-09-09T07:47:02;53.43;40.03;65.72;;
36217;Laerm;22259;48.792;8.964;2022-09-09T07:49:28;43.74;40.60;56.41;;
36217;Laerm;22259;48.792;8.964;2022-09-09T07:51:53;42.68;39.84;47.18;;
36217;Laerm;22259;48.792;8.964;2022-09-09T07:54:19;50.45;40.41;79.71;;
36217;Laerm;22259;48.792;8.964;2022-09-09T07:56:48;41.85;38.92;46.75;;
36217;Laerm;22259;48.792;8.964;2022-09-09T07:59:14;42.11;39.55;50.15;;
36217;Laerm;22259;48.792;8.964;2022-09-09T08:01:44;51.21;39.61;65.32;;
36217;Laerm;22259;48.792;8.964;2022-09-09T08:04:11;44.52;41.32;62.99;;
36217;Laerm;22259;48.792;8.964;2022-09-09T08:06:42;45.07;39.52;54.31;;
36217;Laerm;22259;48.792;8.964;2022-09-09T08:09:08;50.44;45.66;64.88;;
36217;Laerm;22259;48.792;8.964;2022-09-09T08:11:34;47.49;40.80;59.45;;
36217;Laerm;22259;48.792;8.964;2022-09-09T08:14:00;45.51;40.21;64.85;;
36217;Laerm;22259;48.792;8.964;2022-09-09T08:16:27;52.38;41.91;70.06;;
36217;Laerm;22259;48.792;8.964;2022-09-09T08:18:53;51.54;41.76;67.78;;
36217;Laerm;22259;48.792;8.964;2022-09-09T08:21:22;44.55;41.51;54.76;;
36217;Laerm;22259;48.792;8.964;2022-09-09T08:23:49;43.14;40.64;49.22;;
36217;Laerm;22259;48.792;8.964;2022-09-09T08:26:16;45.81;40.67;58.88;;
36217;Laerm;22259;48.792;8.964;2022-09-09T08:28:43;43.27;40.91;54.18;;
36217;Laerm;22259;48.792;8.964;2022-09-09T08:31:30;48.90;39.89;62.51;;
36217;Laerm;22259;48.792;8.964;2022-09-09T08:33:57;50.36;40.64;66.94;;
36217;Laerm;22259;48.792;8.964;2022-09-09T08:36:24;44.29;40.67;59.20;;
36217;Laerm;22259;48.792;8.964;2022-09-09T08:38:52;43.36;40.76;53.35;;
36217;Laerm;22259;48.792;8.964;2022-09-09T08:51:06;55.07;40.38;73.24;;
36217;Laerm;22259;48.792;8.964;2022-09-09T08:53:41;43.03;40.57;46.63;;
36217;Laerm;22259;48.792;8.964;2022-09-09T08:56:09;43.31;40.31;55.40;;
36217;Laerm;22259;48.792;8.964;2022-09-09T08:58:39;43.24;40.41;52.68;;
36217;Laerm;22259;48.792;8.964;2022-09-09T09:05:29;43.90;41.34;51.64;;
36217;Laerm;22259;48.792;8.964;2022-09-09T09:09:00;43.63;40.95;58.43;;
36217;Laerm;22259;48.792;8.964;2022-09-09T09:11:26;44.10;40.31;62.05;;
36217;Laerm;22259;48.792;8.964;2022-09-09T09:13:55;44.77;40.11;66.76;;
36217;Laerm;22259;48.792;8.964;2022-09-09T09:17:10;50.70;40.89;66.33;;
36217;Laerm;22259;48.792;8.964;2022-09-09T09:19:38;50.42;41.16;66.94;;
36217;Laerm;22259;48.792;8.964;2022-09-09T09:22:17;44.73;41.20;55.75;;
36217;Laerm;22259;48.792;8.964;2022-09-09T09:24:55;44.40;41.32;60.78;;
36217;Laerm;22259;48.792;8.964;2022-09-09T09:28:09;43.78;40.93;56.49;;
36217;Laerm;22259;48.792;8.964;2022-09-09T09:30:49;48.73;40.91;67.85;;
36217;Laerm;22259;48.792;8.964;2022-09-09T09:33:36;49.96;41.86;66.70;;
36217;Laerm;22259;48.792;8.964;2022-09-09T09:36:05;43.45;40.95;50.15;;
36217;Laerm;22259;48.792;8.964;2022-09-09T09:38:33;43.14;40.18;62.22;;
36217;Laerm;22259;48.792;8.964;2022-09-09T09:40:59;43.48;40.53;54.24;;
36217;Laerm;22259;48.792;8.964;2022-09-09T09:43:32;45.10;41.51;54.49;;
36217;Laerm;22259;48.792;8.964;2022-09-09T09:45:58;52.07;41.79;68.25;;
36217;Laerm;22259;48.792;8.964;2022-09-09T09:48:24;52.64;41.06;67.31;;
36217;Laerm;22259;48.792;8.964;2022-09-09T09:50:57;43.21;39.61;49.47;;
36217;Laerm;22259;48.792;8.964;2022-09-09T09:53:29;42.66;39.97;48.53;;
36217;Laerm;22259;48.792;8.964;2022-09-09T09:56:06;43.86;40.64;63.33;;
36217;Laerm;22259;48.792;8.964;2022-09-09T10:01:32;48.79;40.57;63.31;;
36217;Laerm;22259;48.792;8.964;2022-09-09T10:04:01;44.75;40.71;70.54;;
36217;Laerm;22259;48.792;8.964;2022-09-09T10:06:34;50.97;41.64;67.99;;
36217;Laerm;22259;48.792;8.964;2022-09-09T10:08:59;44.44;41.18;60.63;;
36217;Laerm;22259;48.792;8.964;2022-09-09T10:15:37;49.08;40.33;67.17;;
36217;Laerm;22259;48.792;8.964;2022-09-09T10:26:03;43.68;40.38;57.00;;
36217;Laerm;22259;48.792;8.964;2022-09-09T10:31:19;49.30;39.34;67.23;;
36217;Laerm;22259;48.792;8.964;2022-09-09T10:34:05;50.45;40.50;65.25;;
36217;Laerm;22259;48.792;8.964;2022-09-09T10:36:38;52.58;40.50;75.92;;
36217;Laerm;22259;48.792;8.964;2022-09-09T10:39:11;56.52;45.67;77.98;;
36217;Laerm;22259;48.792;8.964;2022-09-09T10:41:57;45.99;42.04;60.59;;
36217;Laerm;22259;48.792;8.964;2022-09-09T10:53:47;53.16;40.48;69.76;;
36217;Laerm;22259;48.792;8.964;2022-09-09T10:56:18;54.75;44.77;68.90;;
36217;Laerm;22259;48.792;8.964;2022-09-09T10:58:53;50.85;44.69;65.19;;
36217;Laerm;22259;48.792;8.964;2022-09-09T11:01:21;59.51;48.88;74.59;;
36217;Laerm;22259;48.792;8.964;2022-09-09T11:03:49;54.68;48.44;66.71;;
36217;Laerm;22259;48.792;8.964;2022-09-09T11:06:18;50.86;44.00;70.56;;
36217;Laerm;22259;48.792;8.964;2022-09-09T11:08:44;57.57;43.71;75.47;;
36217;Laerm;22259;48.792;8.964;2022-09-09T11:11:14;46.98;43.22;60.33;;
36217;Laerm;22259;48.792;8.964;2022-09-09T11:14:44;46.63;43.43;57.59;;
36217;Laerm;22259;48.792;8.964;2022-09-09T11:17:18;54.91;43.65;70.44;;
36217;Laerm;22259;48.792;8.964;2022-09-09T11:19:45;54.89;45.84;67.20;;
36217;Laerm;22259;48.792;8.964;2022-09-09T11:22:31;49.92;45.43;63.73;;
36217;Laerm;22259;48.792;8.964;2022-09-09T11:24:59;59.33;45.39;74.66;;
36217;Laerm;22259;48.792;8.964;2022-09-09T11:39:49;48.74;43.91;63.40;;
36217;Laerm;22259;48.792;8.964;2022-09-09T11:42:18;46.96;42.29;61.23;;
36217;Laerm;22259;48.792;8.964;2022-09-09T11:44:45;45.81;42.68;58.39;;
36217;Laerm;22259;48.792;8.964;2022-09-09T11:47:22;54.31;42.43;70.74;;
36217;Laerm;22259;48.792;8.964;2022-09-09T11:49:49;44.56;40.73;58.11;;
36217;Laerm;22259;48.792;8.964;2022-09-09T11:52:25;44.68;41.14;58.68;;
36217;Laerm;22259;48.792;8.964;2022-09-09T11:55:08;44.40;41.10;56.21;;
36217;Laerm;22259;48.792;8.964;2022-09-09T11:57:34;44.48;41.14;57.24;;
36217;Laerm;22259;48.792;8.964;2022-09-09T12:00:00;50.99;40.23;66.97;;
36217;Laerm;22259;48.792;8.964;2022-09-09T12:02:27;43.83;40.28;55.80;;
36217;Laerm;22259;48.792;8.964;2022-09-09T12:05:06;49.51;40.25;66.15;;
36217;Laerm;22259;48.792;8.964;2022-09-09T12:07:34;45.98;40.43;56.12;;
36217;Laerm;22259;48.792;8.964;2022-09-09T12:10:03;44.33;41.12;57.43;;
36217;Laerm;22259;48.792;8.964;2022-09-09T12:12:30;43.75;40.08;60.72;;
36217;Laerm;22259;48.792;8.964;2022-09-09T12:14:57;50.62;40.00;66.31;;
36217;Laerm;22259;48.792;8.964;2022-09-09T12:17:24;51.51;39.78;69.65;;
36217;Laerm;22259;48.792;8.964;2022-09-09T12:20:00;43.56;40.43;51.42;;
36217;Laerm;22259;48.792;8.964;2022-09-09T12:22:37;47.38;40.67;60.65;;
36217;Laerm;22259;48.792;8.964;2022-09-09T12:25:20;43.22;40.60;52.54;;
36217;Laerm;22259;48.792;8.964;2022-09-09T12:28:52;43.51;39.73;57.81;;
36217;Laerm;22259;48.792;8.964;2022-09-09T12:37:51;43.70;40.57;56.07;;
36217;Laerm;22259;48.792;8.964;2022-09-09T12:43:20;49.78;40.87;63.13;;
36217;Laerm;22259;48.792;8.964;2022-09-09T12:45:46;51.52;40.69;68.63;;
36217;Laerm;22259;48.792;8.964;2022-09-09T12:48:14;51.08;41.84;65.18;;
36217;Laerm;22259;48.792;8.964;2022-09-09T12:50:48;44.23;41.40;51.06;;
36217;Laerm;22259;48.792;8.964;2022-09-09T12:53:21;46.25;42.30;63.17;;
36217;Laerm;22259;48.792;8.964;2022-09-09T12:55:49;52.07;42.38;69.29;;
36217;Laerm;22259;48.792;8.964;2022-09-09T12:58:16;45.86;41.91;55.39;;
36217;Laerm;22259;48.792;8.964;2022-09-09T13:00:48;53.11;42.24;68.29;;
36217;Laerm;22259;48.792;8.964;2022-09-09T13:03:16;46.70;42.75;58.36;;
36217;Laerm;22259;48.792;8.964;2022-09-09T13:05:42;47.42;42.01;63.23;;
36217;Laerm;22259;48.792;8.964;2022-09-09T13:08:11;47.08;42.29;60.07;;
36217;Laerm;22259;48.792;8.964;2022-09-09T13:14:37;48.95;41.42;67.15;;
36217;Laerm;22259;48.792;8.964;2022-09-09T13:17:03;53.48;41.88;69.01;;
36217;Laerm;22259;48.792;8.964;2022-09-09T13:19:30;44.22;41.32;54.94;;
36217;Laerm;22259;48.792;8.964;2022-09-09T13:21:57;44.04;40.82;58.80;;
36217;Laerm;22259;48.792;8.964;2022-09-09T13:24:28;44.32;40.95;52.77;;
36217;Laerm;22259;48.792;8.964;2022-09-09T13:26:58;44.41;41.24;55.71;;
36217;Laerm;22259;48.792;8.964;2022-09-09T13:29:23;47.41;43.47;57.29;;
36217;Laerm;22259;48.792;8.964;2022-09-09T13:31:49;51.50;41.18;65.20;;
36217;Laerm;22259;48.792;8.964;2022-09-09T13:34:30;50.73;41.44;62.63;;
36217;Laerm;22259;48.792;8.964;2022-09-09T13:37:00;43.84;41.72;50.49;;
36217;Laerm;22259;48.792;8.964;2022-09-09T13:39:30;44.22;41.51;51.54;;
36217;Laerm;22259;48.792;8.964;2022-09-09T13:41:57;44.15;41.44;58.30;;
36217;Laerm;22259;48.792;8.964;2022-09-09T13:44:29;45.76;42.40;52.55;;
36217;Laerm;22259;48.792;8.964;2022-09-09T13:47:02;54.48;41.63;69.54;;
36217;Laerm;22259;48.792;8.964;2022-09-09T13:49:28;45.70;42.21;59.30;;
36217;Laerm;22259;48.792;8.964;2022-09-09T13:52:03;44.69;41.70;56.27;;
36217;Laerm;22259;48.792;8.964;2022-09-09T13:54:29;43.96;40.62;53.21;;
36217;Laerm;22259;48.792;8.964;2022-09-09T13:56:55;47.40;42.32;62.12;;
36217;Laerm;22259;48.792;8.964;2022-09-09T13:59:21;58.91;42.94;75.95;;
36217;Laerm;22259;48.792;8.964;2022-09-09T14:01:47;53.21;42.14;67.95;;
36217;Laerm;22259;48.792;8.964;2022-09-09T14:04:12;44.47;41.44;53.51;;
36217;Laerm;22259;48.792;8.964;2022-09-09T14:06:38;44.43;41.34;55.25;;
36217;Laerm;22259;48.792;8.964;2022-09-09T14:09:09;44.83;41.64;66.07;;
36217;Laerm;22259;48.792;8.964;2022-09-09T14:11:35;45.59;42.27;53.19;;
36217;Laerm;22259;48.792;8.964;2022-09-09T14:14:00;46.02;41.51;53.68;;
36217;Laerm;22259;48.792;8.964;2022-09-09T14:16:28;55.93;44.27;69.25;;
36217;Laerm;22259;48.792;8.964;2022-09-09T14:18:54;45.70;42.69;59.05;;
36217;Laerm;22259;48.792;8.964;2022-09-09T14:21:23;45.15;41.64;54.18;;
36217;Laerm;22259;48.792;8.964;2022-09-09T14:23:48;43.75;41.26;55.72;;
36217;Laerm;22259;48.792;8.964;2022-09-09T14:26:14;46.19;41.72;58.54;;
36217;Laerm;22259;48.792;8.964;2022-09-09T14:28:39;56.26;41.40;86.87;;
36217;Laerm;22259;48.792;8.964;2022-09-09T14:31:05;48.36;41.40;65.17;;
36217;Laerm;22259;48.792;8.964;2022-09-09T14:33:31;50.36;41.86;65.32;;
36217;Laerm;22259;48.792;8.964;2022-09-09T14:36:00;44.53;41.50;66.87;;
36217;Laerm;22259;48.792;8.964;2022-09-09T14:38:28;44.12;41.59;49.77;;
36217;Laerm;22259;48.792;8.964;2022-09-09T14:40:54;44.25;41.66;53.07;;
36217;Laerm;22259;48.792;8.964;2022-09-09T14:43:19;45.22;41.77;51.59;;
36217;Laerm;22259;48.792;8.964;2022-09-09T14:45:45;54.13;41.48;66.66;;
36217;Laerm;22259;48.792;8.964;2022-09-09T14:48:10;45.98;43.04;54.13;;
36217;Laerm;22259;48.792;8.964;2022-09-09T14:50:36;45.66;42.90;55.80;;
36217;Laerm;22259;48.792;8.964;2022-09-09T14:53:05;47.05;43.72;64.68;;
36217;Laerm;22259;48.792;8.964;2022-09-09T14:55:30;57.49;43.77;70.86;;
36217;Laerm;22259;48.792;8.964;2022-09-09T14:57:56;47.21;42.77;58.12;;
36217;Laerm;22259;48.792;8.964;2022-09-09T15:00:21;50.86;40.91;69.68;;
36217;Laerm;22259;48.792;8.964;2022-09-09T15:02:47;49.25;40.93;63.42;;
36217;Laerm;22259;48.792;8.964;2022-09-09T15:05:12;49.83;40.26;66.82;;
36217;Laerm;22259;48.792;8.964;2022-09-09T15:07:38;42.44;39.92;53.57;;
36217;Laerm;22259;48.792;8.964;2022-09-09T15:10:03;44.08;40.91;52.16;;
36217;Laerm;22259;48.792;8.964;2022-09-09T15:12:29;44.03;40.87;56.80;;
36217;Laerm;22259;48.792;8.964;2022-09-09T15:14:55;51.95;40.89;67.79;;
36217;Laerm;22259;48.792;8.964;2022-09-09T15:17:20;52.61;40.95;70.16;;
36217;Laerm;22259;48.792;8.964;2022-09-09T15:19:46;43.07;40.53;50.75;;
36217;Laerm;22259;48.792;8.964;2022-09-09T15:22:11;43.05;40.64;51.19;;
36217;Laerm;22259;48.792;8.964;2022-09-09T15:24:37;43.68;40.64;52.85;;
36217;Laerm;22259;48.792;8.964;2022-09-09T15:27:02;43.42;40.26;54.85;;
36217;Laerm;22259;48.792;8.964;2022-09-09T15:29:27;48.26;41.28;65.78;;
36217;Laerm;22259;48.792;8.964;2022-09-09T15:31:53;51.18;40.48;66.49;;